Time,TemperatureF,DewpointF,PressureIn,WindDirection,WindDirectionDegrees,WindSpeedMPH,WindSpeedGustMPH,Humidity,HourlyPrecipIn,Conditions,Clouds,dailyrainin,SoftwareType,DateUTC
2013-10-17 00:00:00,47.2,45.3,29.82,NNW,332,0.0,0.0,93,0.00,,---,0.02,VWS V14.01,2013-10-17 05:00:00,
2013-10-17 00:30:00,46.8,44.9,29.81,North,355,0.0,5.0,93,0.00,,---,0.00,VWS V14.01,2013-10-17 05:30:00,
2013-10-17 01:00:00,46.9,44.7,29.82,North,355,0.0,0.0,92,0.00,,---,0.00,VWS V14.01,2013-10-17 06:00:00,
2013-10-17 01:30:00,46.5,44.0,29.81,North,360,0.0,4.0,91,0.00,,---,0.00,VWS V14.01,2013-10-17 06:30:00,
2013-10-17 02:00:00,46.3,43.5,29.80,North,360,0.0,0.0,90,0.00,,---,0.00,VWS V14.01,2013-10-17 07:00:00,
2013-10-17 02:30:00,46.1,43.6,29.81,North,360,0.0,0.0,91,0.00,,---,0.00,VWS V14.01,2013-10-17 07:30:00,
2013-10-17 03:00:00,46.0,43.2,29.80,North,360,0.0,0.0,90,0.00,,---,0.00,VWS V14.01,2013-10-17 08:00:00,
2013-10-17 03:30:00,45.8,43.3,29.79,North,360,0.0,0.0,91,0.00,,---,0.00,VWS V14.01,2013-10-17 08:30:00,
2013-10-17 04:00:00,45.6,43.4,29.80,North,360,0.0,0.0,92,0.00,,---,0.00,VWS V14.01,2013-10-17 09:00:00,
2013-10-17 04:30:00,45.8,43.6,29.79,North,360,0.0,0.0,92,0.00,,---,0.00,VWS V14.01,2013-10-17 09:30:00,
2013-10-17 05:00:00,45.8,43.9,29.81,North,360,0.0,0.0,93,0.00,,---,0.00,VWS V14.01,2013-10-17 10:00:00,
2013-10-17 05:30:00,45.6,43.7,29.80,North,360,0.0,0.0,93,0.00,,---,0.00,VWS V14.01,2013-10-17 10:30:00,
2013-10-17 06:00:00,45.6,44.0,29.79,North,360,0.0,0.0,94,0.00,,---,0.00,VWS V14.01,2013-10-17 11:00:00,
2013-10-17 06:30:00,45.5,43.9,29.78,North,360,0.0,0.0,94,0.00,,---,0.00,VWS V14.01,2013-10-17 11:30:00,
2013-10-17 07:00:00,45.4,43.8,29.77,North,360,0.0,0.0,94,0.00,,---,0.00,VWS V14.01,2013-10-17 12:00:00,
2013-10-17 07:30:00,45.3,43.7,29.78,North,360,0.0,0.0,94,0.00,,---,0.00,VWS V14.01,2013-10-17 12:30:00,
2013-10-17 08:00:00,45.5,43.9,29.78,North,360,0.0,0.0,94,0.01,,---,0.01,VWS V14.01,2013-10-17 13:00:00,
2013-10-17 08:30:00,45.3,43.7,29.78,North,360,0.0,1.0,94,0.02,,---,0.02,VWS V14.01,2013-10-17 13:30:00,
2013-10-17 09:00:00,45.4,43.5,29.78,North,360,0.0,0.0,93,0.04,,---,0.04,VWS V14.01,2013-10-17 14:00:00,
2013-10-17 09:30:00,44.7,42.5,29.77,NNE,22,0.0,0.0,92,0.05,,---,0.06,VWS V14.01,2013-10-17 14:30:00,
2013-10-17 10:00:00,45.1,43.2,29.77,North,11,0.0,3.0,93,0.05,,---,0.07,VWS V14.01,2013-10-17 15:00:00,
2013-10-17 10:30:00,45.0,43.1,29.77,North,349,3.0,6.0,93,0.05,,---,0.09,VWS V14.01,2013-10-17 15:30:00,
2013-10-17 11:00:00,45.5,43.3,29.77,North,5,3.0,6.0,92,0.04,,---,0.10,VWS V14.01,2013-10-17 16:00:00,
2013-10-17 11:30:00,45.7,43.5,29.77,North,5,0.0,5.0,92,0.04,,---,0.11,VWS V14.01,2013-10-17 16:30:00,
2013-10-17 12:00:00,45.7,43.2,29.76,NNW,337,0.0,4.0,91,0.03,,---,0.12,VWS V14.01,2013-10-17 17:00:00,
2013-10-17 12:30:00,46.1,43.6,29.75,North,360,0.0,5.0,91,0.04,,---,0.14,VWS V14.01,2013-10-17 17:30:00,
2013-10-17 13:00:00,46.5,44.0,29.74,NNW,330,0.0,4.0,91,0.03,,---,0.14,VWS V14.01,2013-10-17 18:00:00,
2013-10-17 13:30:00,47.0,44.2,29.73,NNW,341,0.0,7.0,90,0.02,,---,0.14,VWS V14.01,2013-10-17 18:30:00,
2013-10-17 14:00:00,46.9,43.2,29.73,NNW,344,3.0,10.0,87,0.00,,---,0.14,VWS V14.01,2013-10-17 19:00:00,
2013-10-17 14:30:00,46.7,43.6,29.74,North,360,7.0,10.0,89,0.00,,---,0.14,VWS V14.01,2013-10-17 19:30:00,
2013-10-17 15:00:00,47.3,43.6,29.73,WNW,298,4.0,12.0,87,0.00,,---,0.14,VWS V14.01,2013-10-17 20:00:00,
2013-10-17 15:30:00,48.2,43.3,29.72,WNW,299,0.0,9.0,83,0.00,,---,0.14,VWS V14.01,2013-10-17 20:30:00,
2013-10-17 16:00:00,47.0,41.8,29.73,NNW,334,8.0,12.0,82,0.00,,---,0.14,VWS V14.01,2013-10-17 21:00:00,
2013-10-17 16:30:00,46.9,42.3,29.74,WNW,295,0.0,11.0,84,0.00,,---,0.14,VWS V14.01,2013-10-17 21:30:00,
2013-10-17 17:00:00,47.2,42.6,29.74,NW,323,2.0,9.0,84,0.00,,---,0.14,VWS V14.01,2013-10-17 22:00:00,
2013-10-17 17:30:00,46.6,42.3,29.74,NNW,329,0.0,6.0,85,0.00,,---,0.14,VWS V14.01,2013-10-17 22:30:00,
2013-10-17 18:00:00,45.2,41.6,29.75,NNW,329,0.0,0.0,87,0.00,,---,0.14,VWS V14.01,2013-10-17 23:00:00,
2013-10-17 18:30:00,44.0,41.0,29.76,NNW,329,0.0,0.0,89,0.00,,---,0.14,VWS V14.01,2013-10-17 23:30:00,
2013-10-17 19:00:00,42.9,40.5,29.76,NNW,329,0.0,0.0,91,0.00,,---,0.14,VWS V14.01,2013-10-18 00:00:00,
2013-10-17 19:30:00,42.1,40.0,29.76,NNW,329,0.0,0.0,92,0.00,,---,0.14,VWS V14.01,2013-10-18 00:30:00,
2013-10-17 20:00:00,41.6,39.5,29.76,NNW,329,0.0,0.0,92,0.00,,---,0.14,VWS V14.01,2013-10-18 01:00:00,
2013-10-17 20:30:00,41.5,39.6,29.77,NNW,329,0.0,0.0,93,0.00,,---,0.14,VWS V14.01,2013-10-18 01:30:00,
2013-10-17 21:00:00,41.4,39.5,29.77,NNW,329,0.0,0.0,93,0.01,,---,0.15,VWS V14.01,2013-10-18 02:00:00,
2013-10-17 21:30:00,41.0,39.1,29.77,NNW,329,0.0,0.0,93,0.01,,---,0.15,VWS V14.01,2013-10-18 02:30:00,
2013-10-17 22:00:00,40.3,38.4,29.77,NNW,329,0.0,0.0,93,0.01,,---,0.15,VWS V14.01,2013-10-18 03:00:00,
2013-10-17 22:30:00,39.3,37.5,29.76,NNW,329,0.0,0.0,93,0.00,,---,0.15,VWS V14.01,2013-10-18 03:30:00,
2013-10-17 23:00:00,39.3,37.7,29.76,NNW,329,0.0,0.0,94,0.00,,---,0.15,VWS V14.01,2013-10-18 04:00:00,
2013-10-17 23:30:00,38.8,37.2,29.76,NNW,329,0.0,0.0,94,0.00,,---,0.15,VWS V14.01,2013-10-18 04:30:00,